Flight Track Log - Related Links

Times and Time Zones

All times are in EDT time to prevent confusion due to time zone crossing. See the QXE2185 flight status page for this flight to view local times or setup timezone preferences in your user account.

Time Position Orientation Groundspeed Altitude Reporting Facility
EDT Latitude Longitude Course Direction KTS MPH feet Rate Location/Type
Wed 01:12:14 PM 41.9422 -123.3283 178° South 345 397 25,000  Level Oakland Center
Wed 01:12:58 PM 41.8775 -123.3247 178° South 342 394 25,000  Level Seattle Center
Wed 01:13:59 PM 41.7822 -123.3231 179° South 342 394 25,000  Level Seattle Center
Wed 01:15:00 PM 41.6864 -123.3208 179° South 344 396 25,000  Level Seattle Center
Wed 01:16:01 PM 41.5939 -123.3194 179° South 336 387 25,000  Level Seattle Center
Wed 01:16:20 PM 41.5617 -123.3156 175° South 341 392 25,000  Level Oakland Center
Wed 01:17:21 PM 41.4681 -123.3017 174° South 340 391 25,000  Level Oakland Center
Wed 01:18:22 PM 41.3744 -123.2892 174° South 340 391 25,000  Level Oakland Center
Wed 01:19:04 PM 41.2997 -123.2789 174° South 337 388 25,000  Level Seattle Center
Wed 01:20:05 PM 41.2056 -123.2667 174° South 339 390 25,000  Level Seattle Center
Wed 01:21:06 PM 41.1136 -123.2550 175° South 335 386 25,000  Level Seattle Center
Wed 01:22:07 PM 41.0206 -123.2422 174° South 335 386 25,000  Level Seattle Center
Wed 01:23:08 PM 40.9278 -123.2306 175° South 335 386 25,000  Level Seattle Center
Wed 01:24:09 PM 40.8350 -123.2189 175° South 335 386 25,000  Level Seattle Center
Wed 01:24:30 PM 40.7914 -123.2125 174° South 335 386 25,000  Level Oakland Center
Wed 01:25:32 PM 40.6986 -123.1997 174° South 335 386 25,000  Level Oakland Center
Wed 01:26:33 PM 40.6067 -123.1878 174° South 333 383 25,000  Level Oakland Center
Wed 01:27:34 PM 40.5133 -123.1764 175° South 337 388 25,000  Level Oakland Center
Wed 01:28:35 PM 40.4200 -123.1644 174° South 337 388 25,000  Level Oakland Center
Wed 01:29:37 PM 40.3281 -123.1533 175° South 333 383 25,000  Level Oakland Center
Wed 01:30:38 PM 40.2356 -123.1403 174° South 335 386 25,000  Level Oakland Center
Wed 01:31:39 PM 40.1436 -123.1283 174° South 334 384 25,000  Level Oakland Center
Wed 01:32:41 PM 40.0328 -123.1142 174° South 335 386 25,000  Level Oakland Center
Wed 01:33:42 PM 39.9411 -123.1031 175° South 332 382 25,000  Level Oakland Center
Wed 01:34:43 PM 39.8494 -123.0911 174° South 334 384 25,000  Level Oakland Center
Wed 01:35:45 PM 39.7583 -123.0797 175° South 332 382 25,000  Level Oakland Center
Wed 01:36:46 PM 39.6664 -123.0669 174° South 334 384 25,000  Level Oakland Center
Wed 01:37:47 PM 39.5744 -123.0561 175° South 334 384 25,000  Level Oakland Center
Wed 01:38:49 PM 39.4828 -123.0436 174° South 334 384 25,000  Level Oakland Center
Wed 01:39:50 PM 39.3858 -123.0303 174° South 332 382 25,000  Level Oakland Center
Wed 01:40:51 PM 39.2933 -123.0183 174° South 334 384 25,000 -537 Level Oakland Center
Wed 01:41:53 PM 39.1986 -123.0069 175° South 341 392 23,900 -1,122 Descending Oakland Center
Wed 01:42:54 PM 39.0989 -122.9928 174° South 357 411 22,700 -1,279 Descending Oakland Center
Wed 01:43:55 PM 38.9742 -122.9797 175° South 371 427 21,300 -1,268 Descending Oakland Center
Wed 01:44:57 PM 38.8711 -122.9642 173° South 373 429 20,100 -1,171 Descending Oakland Center
Wed 01:45:58 PM 38.7669 -122.9528 175° South 374 430 18,900 -1,033 Descending Oakland Center
Wed 01:46:59 PM 38.6625 -122.9417 175° South 378 435 18,000 -439 Descending Oakland Center
Wed 01:48:01 PM 38.5586 -122.9272 174° South 377 434 18,000  Level Oakland Center
Wed 01:49:02 PM 38.4564 -122.9147 175° South 371 427 18,000 -146 Level Oakland Center
Wed 01:50:04 PM 38.3550 -122.9028 175° South 368 423 17,700 -732 Descending Oakland Center
Wed 01:51:05 PM 38.2531 -122.8897 174° South 369 425 16,500 -1,279 Descending Oakland Center
Wed 01:52:06 PM 38.1336 -122.8753 175° South 362 417 15,100 -1,317 Descending Oakland Center
Wed 01:53:08 PM 38.0431 -122.8467 166° South 341 392 13,800 -1,220 Descending Oakland Center
Wed 01:54:09 PM 37.9725 -122.7714 140° Southeast 333 383 12,600 -885 Descending Oakland Center
Wed 01:55:10 PM 37.9050 -122.6944 138° Southeast 331 381 12,000 -293 Descending Oakland Center
Wed 01:56:12 PM 37.8386 -122.6206 139° Southeast 330 380 12,000  Level Oakland Center
Wed 01:56:37 PM 37.8000 -122.5833 143° Southeast 324 373 12,000  Level Northern Cal TRACON
Wed 01:57:37 PM 37.7333 -122.5000 135° Southeast 324 373 12,000  Level Northern Cal TRACON
Wed 01:58:37 PM 37.6667 -122.4333 142° Southeast 324 373 12,000  Level Northern Cal TRACON
Wed 01:59:16 PM 37.6247 -122.3803 135° Southeast 323 372 12,000 -60 Level Oakland Center
Wed 02:00:17 PM 37.5461 -122.3300 153° Southeast 322 371 11,900 -829 Descending Oakland Center
Wed 02:01:19 PM 37.4622 -122.2892 159° South 322 371 10,300 -1,610 Descending Oakland Center
Wed 02:02:20 PM 37.3897 -122.2458 155° Southeast 291 335 8,600 -1,574 Descending Oakland Center
Wed 02:03:21 PM 37.3325 -122.1867 141° Southeast 276 318 7,100 -1,024 Descending Oakland Center
Wed 02:04:23 PM 37.2922 -122.1167 126° Southeast 250 288 6,500 -537 Descending Oakland Center
Wed 02:05:24 PM 37.2522 -122.0350 122° Southeast 218 251 6,000 -295 Descending Oakland Center
Wed 02:06:25 PM 37.2350 -121.9614 106° East 219 252 5,900 -488 Descending Oakland Center
Wed 02:07:27 PM 37.2178 -121.8900 107° East 215 247 5,000 -1,220 Descending Oakland Center
Wed 02:08:28 PM 37.2439 -121.8297 61° Northeast 220 253 3,400 -1,610 Descending Oakland Center
Wed 02:09:30 PM 37.2917 -121.8494 342° North 202 232 1,700 -1,220 Descending Oakland Center
Wed 02:10:31 PM 37.3236 -121.8867 317° Northwest 176 203 900 -738 Descending Oakland Center
Wed 02:11:32 PM 37.3492 -121.9150 319° Northwest 146 168 200 -689 Descending Oakland Center

Login

Don't have an account? Register now (free) for customized features, flight alerts, and more!